Time;durP1;ratioP1;P1;durP2;ratioP2;P2;SDS_P1;SDS_P2;PMS_P1;PMS_P2;Temp;Humidity;BMP_temperature;BMP_pressure;BME280_temperature;BME280_humidity;BME280_pressure;Samples;Min_cycle;Max_cycle;Signal;HPM_P1;HPM_P2
2021/08/02 00:02:09;;;;;;;24.90;23.13;;;;;;;;;;5015304;28;20444;-85
2021/08/02 00:04:39;;;;;;;24.53;22.77;;;;;;;;;;5017191;28;20416;-85
2021/08/02 00:07:10;;;;;;;23.23;21.73;;;;;;;;;;5017500;28;20449;-86
2021/08/02 00:09:38;;;;;;;23.33;21.93;;;;;;;;;;5017208;28;21025;-86
2021/08/02 00:12:06;;;;;;;23.60;22.10;;;;;;;;;;5017503;28;20408;-85
2021/08/02 00:14:35;;;;;;;23.40;21.83;;;;;;;;;;5017196;28;20513;-86
2021/08/02 00:17:04;;;;;;;23.37;21.87;;;;;;;;;;5017414;28;20438;-86
2021/08/02 00:19:34;;;;;;;23.03;21.70;;;;;;;;;;5016054;28;20425;-86
2021/08/02 00:22:02;;;;;;;23.70;22.20;;;;;;;;;;5016919;28;20456;-86
2021/08/02 00:24:29;;;;;;;23.83;22.20;;;;;;;;;;5017028;28;20450;-86
2021/08/02 00:26:57;;;;;;;22.20;20.83;;;;;;;;;;5016874;28;20435;-86
2021/08/02 00:29:24;;;;;;;25.63;23.40;;;;;;;;;;5016717;28;20441;-86
2021/08/02 00:31:54;;;;;;;24.67;22.93;;;;;;;;;;5016652;28;20937;-86
2021/08/02 00:34:21;;;;;;;25.00;23.30;;;;;;;;;;5016211;28;20457;-86
2021/08/02 00:36:54;;;;;;;25.30;23.40;;;;;;;;;;5016859;28;20818;-86
2021/08/02 00:39:24;;;;;;;24.17;22.60;;;;;;;;;;5016860;28;20475;-86
2021/08/02 00:42:11;;;;;;;24.53;22.83;;;;;;;;;;5017724;28;20412;-85
2021/08/02 00:44:53;;;;;;;24.13;22.40;;;;;;;;;;5015916;28;20446;-86
2021/08/02 00:47:21;;;;;;;24.07;22.47;;;;;;;;;;5004682;28;20458;-86
2021/08/02 00:49:51;;;;;;;23.53;21.93;;;;;;;;;;5016753;28;20448;-85
2021/08/02 00:52:21;;;;;;;25.10;23.50;;;;;;;;;;5016684;28;20442;-86
2021/08/02 00:54:49;;;;;;;24.10;22.37;;;;;;;;;;5016446;28;20419;-86
2021/08/02 00:57:18;;;;;;;24.10;22.60;;;;;;;;;;5016632;28;20424;-86
2021/08/02 00:59:46;;;;;;;23.43;21.93;;;;;;;;;;5016540;28;20785;-86
2021/08/02 01:02:14;;;;;;;23.30;21.80;;;;;;;;;;5016946;28;20886;-86
2021/08/02 01:04:41;;;;;;;22.40;20.90;;;;;;;;;;5016356;28;20407;-85
2021/08/02 01:07:09;;;;;;;21.20;19.90;;;;;;;;;;5016257;28;20450;-86
2021/08/02 01:09:38;;;;;;;21.33;20.03;;;;;;;;;;5016166;28;20440;-86
2021/08/02 01:12:08;;;;;;;22.77;21.37;;;;;;;;;;5016463;28;20443;-86
2021/08/02 01:14:36;;;;;;;22.30;20.83;;;;;;;;;;5016604;28;20436;-86
2021/08/02 01:17:04;;;;;;;22.17;20.87;;;;;;;;;;5016800;28;20457;-86
2021/08/02 01:19:31;;;;;;;21.30;20.00;;;;;;;;;;5015960;28;20417;-85
2021/08/02 01:21:59;;;;;;;21.83;20.33;;;;;;;;;;5016221;28;20430;-85
2021/08/02 01:24:28;;;;;;;21.57;20.27;;;;;;;;;;5015596;28;20466;-85
2021/08/02 01:27:10;;;;;;;22.10;20.70;;;;;;;;;;5016110;28;20443;-86
2021/08/02 01:29:56;;;;;;;21.03;19.83;;;;;;;;;;5015555;28;20824;-85
2021/08/02 01:32:24;;;;;;;22.87;20.67;;;;;;;;;;5015824;28;20408;-86
2021/08/02 01:34:52;;;;;;;21.20;19.70;;;;;;;;;;5016321;28;20439;-85
2021/08/02 01:37:19;;;;;;;22.67;20.90;;;;;;;;;;5016048;28;20444;-86
2021/08/02 01:39:51;;;;;;;22.67;20.77;;;;;;;;;;5015601;28;20412;-84
2021/08/02 01:42:18;;;;;;;21.73;20.53;;;;;;;;;;5015454;28;20447;-86
2021/08/02 01:44:46;;;;;;;21.53;20.33;;;;;;;;;;5015323;28;20508;-86
2021/08/02 01:47:17;;;;;;;21.40;20.10;;;;;;;;;;5015147;28;20416;-86
2021/08/02 01:49:47;;;;;;;20.90;19.60;;;;;;;;;;5014408;28;20453;-86
2021/08/02 01:52:18;;;;;;;22.07;20.53;;;;;;;;;;5015243;28;20418;-86
2021/08/02 01:54:53;;;;;;;22.43;20.70;;;;;;;;;;5015956;28;20456;-86
2021/08/02 01:57:24;;;;;;;21.57;20.17;;;;;;;;;;5015593;28;20488;-86
2021/08/02 01:59:54;;;;;;;21.70;19.87;;;;;;;;;;5015339;28;20432;-85
2021/08/02 02:02:22;;;;;;;21.73;20.17;;;;;;;;;;5015543;28;20434;-86
2021/08/02 02:04:54;;;;;;;20.87;19.57;;;;;;;;;;5015114;28;20473;-85
2021/08/02 02:07:22;;;;;;;21.70;20.20;;;;;;;;;;5015301;28;20445;-85
2021/08/02 02:09:50;;;;;;;22.27;20.43;;;;;;;;;;5015047;28;20430;-86
2021/08/02 02:12:19;;;;;;;21.63;20.03;;;;;;;;;;5015112;28;20454;-86
2021/08/02 02:14:49;;;;;;;22.00;20.43;;;;;;;;;;5015353;28;20429;-86
2021/08/02 02:17:16;;;;;;;22.37;20.77;;;;;;;;;;5015327;28;20417;-86
2021/08/02 02:19:44;;;;;;;20.93;19.67;;;;;;;;;;5015266;28;20426;-86
2021/08/02 02:22:12;;;;;;;22.20;20.63;;;;;;;;;;5015048;28;20415;-85
2021/08/02 02:24:40;;;;;;;21.33;20.00;;;;;;;;;;5015057;28;20485;-86
2021/08/02 02:27:08;;;;;;;22.17;20.47;;;;;;;;;;5015208;28;20424;-85
2021/08/02 02:29:36;;;;;;;21.70;20.50;;;;;;;;;;5014754;28;20484;-86
2021/08/02 02:32:06;;;;;;;21.60;20.40;;;;;;;;;;5014973;28;20848;-86
2021/08/02 02:34:34;;;;;;;20.50;19.37;;;;;;;;;;5014871;28;20859;-85
2021/08/02 02:37:02;;;;;;;21.17;19.80;;;;;;;;;;5014570;28;20412;-85
2021/08/02 02:39:29;;;;;;;21.20;19.90;;;;;;;;;;5014441;28;20433;-84
2021/08/02 02:41:57;;;;;;;21.03;19.40;;;;;;;;;;5015073;28;20415;-85
2021/08/02 02:44:25;;;;;;;20.93;19.70;;;;;;;;;;5014611;28;20484;-85
2021/08/02 02:46:53;;;;;;;21.53;19.73;;;;;;;;;;5013481;28;20424;-84
2021/08/02 02:49:22;;;;;;;22.80;21.37;;;;;;;;;;5014644;28;20415;-85
2021/08/02 02:51:50;;;;;;;20.33;19.23;;;;;;;;;;5014553;28;20426;-85
2021/08/02 02:54:20;;;;;;;21.00;19.90;;;;;;;;;;5014596;28;20425;-85
2021/08/02 02:56:47;;;;;;;20.13;19.03;;;;;;;;;;5014296;28;20870;-85
2021/08/02 02:59:15;;;;;;;21.77;20.27;;;;;;;;;;5014607;28;20426;-84
2021/08/02 03:01:46;;;;;;;20.87;19.67;;;;;;;;;;5013675;28;20412;-85
2021/08/02 03:04:14;;;;;;;21.23;19.90;;;;;;;;;;5013353;28;20455;-85
2021/08/02 03:06:45;;;;;;;20.77;19.60;;;;;;;;;;5014305;28;20413;-85
2021/08/02 03:09:13;;;;;;;21.57;20.20;;;;;;;;;;5014112;28;20432;-85
2021/08/02 03:11:40;;;;;;;19.53;18.33;;;;;;;;;;5014610;28;20452;-84
2021/08/02 03:14:08;;;;;;;22.30;20.77;;;;;;;;;;5014410;28;20454;-85
2021/08/02 03:16:35;;;;;;;21.37;20.13;;;;;;;;;;5014383;28;20423;-85
2021/08/02 03:19:02;;;;;;;20.83;19.53;;;;;;;;;;5014044;28;20921;-85
2021/08/02 03:21:30;;;;;;;21.40;20.20;;;;;;;;;;5014607;28;20437;-84
2021/08/02 03:24:11;;;;;;;19.97;18.87;;;;;;;;;;5014298;28;20467;-85
2021/08/02 03:26:40;;;;;;;21.53;20.13;;;;;;;;;;5013866;28;20440;-85
2021/08/02 03:29:10;;;;;;;20.63;19.33;;;;;;;;;;5013717;28;20438;-84
2021/08/02 03:31:41;;;;;;;21.50;20.20;;;;;;;;;;5013749;28;20462;-85
2021/08/02 03:34:08;;;;;;;22.33;20.93;;;;;;;;;;5014413;28;20905;-85
2021/08/02 03:36:36;;;;;;;22.40;21.10;;;;;;;;;;5014022;28;20408;-84
2021/08/02 03:39:05;;;;;;;24.20;22.07;;;;;;;;;;5014167;28;20411;-85
2021/08/02 03:41:32;;;;;;;24.47;22.23;;;;;;;;;;5012875;28;20805;-85
2021/08/02 03:44:01;;;;;;;23.80;22.20;;;;;;;;;;5014506;28;20807;-85
2021/08/02 03:46:28;;;;;;;22.23;20.83;;;;;;;;;;5014398;28;20797;-85
2021/08/02 03:48:56;;;;;;;26.80;23.90;;;;;;;;;;5014549;28;20441;-85
2021/08/02 03:51:23;;;;;;;22.93;21.40;;;;;;;;;;5014246;28;20408;-84
2021/08/02 03:53:51;;;;;;;22.70;21.20;;;;;;;;;;5012937;28;20449;-84
2021/08/02 03:56:20;;;;;;;23.53;21.70;;;;;;;;;;5014772;28;20518;-85
2021/08/02 03:58:48;;;;;;;22.10;20.73;;;;;;;;;;5013936;28;20457;-85
2021/08/02 04:01:15;;;;;;;22.37;20.90;;;;;;;;;;5013609;28;20502;-84
2021/08/02 04:03:43;;;;;;;22.63;21.23;;;;;;;;;;5014655;28;20822;-85
2021/08/02 04:06:11;;;;;;;22.83;21.40;;;;;;;;;;5013851;28;20749;-84
2021/08/02 04:08:38;;;;;;;24.47;22.83;;;;;;;;;;5014441;28;20430;-84
2021/08/02 04:11:06;;;;;;;24.13;22.53;;;;;;;;;;5017119;28;20408;-85
2021/08/02 04:13:34;;;;;;;23.50;21.80;;;;;;;;;;5017332;28;20770;-85
2021/08/02 04:16:02;;;;;;;22.20;20.67;;;;;;;;;;5017333;28;20437;-85
2021/08/02 04:18:29;;;;;;;21.93;20.53;;;;;;;;;;5016953;28;20438;-85
2021/08/02 04:20:57;;;;;;;21.67;20.27;;;;;;;;;;5016958;28;20420;-85
2021/08/02 04:23:24;;;;;;;23.47;21.50;;;;;;;;;;5016252;28;20415;-85
2021/08/02 04:25:52;;;;;;;22.50;20.80;;;;;;;;;;5017207;28;20445;-85
2021/08/02 04:28:19;;;;;;;21.13;19.73;;;;;;;;;;5016911;28;20472;-85
2021/08/02 04:30:48;;;;;;;23.90;22.20;;;;;;;;;;5016517;28;20476;-85
2021/08/02 04:33:15;;;;;;;24.13;22.23;;;;;;;;;;5017023;28;20411;-85
2021/08/02 04:35:43;;;;;;;22.13;20.53;;;;;;;;;;5016878;28;20483;-85
2021/08/02 04:38:10;;;;;;;22.10;20.60;;;;;;;;;;5017106;28;20407;-85
2021/08/02 04:40:38;;;;;;;21.77;20.27;;;;;;;;;;5016846;28;20436;-85
2021/08/02 04:43:05;;;;;;;27.33;24.83;;;;;;;;;;5016500;28;20439;-84
2021/08/02 04:45:33;;;;;;;23.57;21.67;;;;;;;;;;5016632;28;20477;-85
2021/08/02 04:48:02;;;;;;;24.17;22.47;;;;;;;;;;5016649;28;20396;-85
2021/08/02 04:50:29;;;;;;;22.87;21.43;;;;;;;;;;5016552;28;20438;-85
2021/08/02 04:52:56;;;;;;;23.07;21.37;;;;;;;;;;5016712;28;20451;-84
2021/08/02 04:55:24;;;;;;;26.67;23.97;;;;;;;;;;5016099;28;20916;-84
2021/08/02 04:57:51;;;;;;;24.93;22.90;;;;;;;;;;5016611;28;20412;-85
2021/08/02 05:00:19;;;;;;;24.00;22.23;;;;;;;;;;5016213;28;20422;-84
2021/08/02 05:02:46;;;;;;;23.40;21.87;;;;;;;;;;5015014;28;20455;-85
2021/08/02 05:05:15;;;;;;;23.37;21.93;;;;;;;;;;5015985;28;20451;-85
2021/08/02 05:07:42;;;;;;;23.17;21.77;;;;;;;;;;5015974;28;20424;-85
2021/08/02 05:10:10;;;;;;;22.33;20.87;;;;;;;;;;5016252;28;20452;-85
2021/08/02 05:12:38;;;;;;;22.40;21.10;;;;;;;;;;5015855;28;20411;-85
2021/08/02 05:15:06;;;;;;;22.80;21.30;;;;;;;;;;5015982;28;20411;-86
2021/08/02 05:17:33;;;;;;;22.80;21.27;;;;;;;;;;5016701;28;20409;-86
2021/08/02 05:20:01;;;;;;;23.53;21.50;;;;;;;;;;5016072;28;20785;-86
2021/08/02 05:22:30;;;;;;;22.27;20.47;;;;;;;;;;5016653;28;20756;-86
2021/08/02 05:24:57;;;;;;;22.37;20.77;;;;;;;;;;5015879;28;20458;-85
2021/08/02 05:27:24;;;;;;;22.43;20.67;;;;;;;;;;5016075;28;20437;-85
2021/08/02 05:29:52;;;;;;;23.27;21.83;;;;;;;;;;5015635;28;20452;-85
2021/08/02 05:32:19;;;;;;;22.50;21.10;;;;;;;;;;5015650;28;20448;-85
2021/08/02 05:34:46;;;;;;;22.30;21.00;;;;;;;;;;5014555;28;20449;-85
2021/08/02 05:37:14;;;;;;;22.60;20.70;;;;;;;;;;5015768;28;20449;-84
2021/08/02 05:39:43;;;;;;;21.30;20.10;;;;;;;;;;5015702;28;20419;-85
2021/08/02 05:42:10;;;;;;;20.80;19.50;;;;;;;;;;5015370;28;20424;-84
2021/08/02 05:44:38;;;;;;;21.73;20.20;;;;;;;;;;5015163;28;20470;-85
2021/08/02 05:47:11;;;;;;;22.03;20.00;;;;;;;;;;5015571;28;20416;-84
2021/08/02 05:49:39;;;;;;;21.43;20.03;;;;;;;;;;5015248;28;20451;-85
2021/08/02 05:52:06;;;;;;;21.20;19.80;;;;;;;;;;5015088;28;20432;-85
2021/08/02 05:54:33;;;;;;;23.30;21.77;;;;;;;;;;5015352;28;20428;-84
2021/08/02 05:57:03;;;;;;;22.30;20.80;;;;;;;;;;5015759;28;20809;-84
2021/08/02 05:59:30;;;;;;;21.97;20.50;;;;;;;;;;5014879;28;20788;-85
2021/08/02 06:01:59;;;;;;;22.23;20.67;;;;;;;;;;5015274;28;20832;-84
2021/08/02 06:04:26;;;;;;;21.23;19.83;;;;;;;;;;5014853;28;20484;-85
2021/08/02 06:06:54;;;;;;;22.20;20.60;;;;;;;;;;5015132;28;20492;-84
2021/08/02 06:09:22;;;;;;;22.40;20.80;;;;;;;;;;5013666;28;20435;-84
2021/08/02 06:11:49;;;;;;;23.20;21.13;;;;;;;;;;5014860;28;20448;-84
2021/08/02 06:14:18;;;;;;;22.97;21.57;;;;;;;;;;5014983;28;20444;-84
2021/08/02 06:16:45;;;;;;;21.00;19.70;;;;;;;;;;5015020;28;20798;-84
2021/08/02 06:19:13;;;;;;;23.10;21.40;;;;;;;;;;5014632;28;20445;-84
2021/08/02 06:21:40;;;;;;;21.67;20.27;;;;;;;;;;5014800;28;20434;-83
2021/08/02 06:24:08;;;;;;;22.33;20.73;;;;;;;;;;5014624;28;20429;-83
2021/08/02 06:26:37;;;;;;;21.87;20.50;;;;;;;;;;5013484;28;20458;-83
2021/08/02 06:29:04;;;;;;;21.57;20.17;;;;;;;;;;5014390;28;20493;-83
2021/08/02 06:31:33;;;;;;;22.83;21.33;;;;;;;;;;5013774;28;20500;-83
2021/08/02 06:34:00;;;;;;;23.17;21.60;;;;;;;;;;5014988;28;20450;-84
2021/08/02 06:36:28;;;;;;;21.57;20.37;;;;;;;;;;5014216;28;20421;-83
2021/08/02 06:38:55;;;;;;;24.47;22.60;;;;;;;;;;5014443;28;20400;-83
2021/08/02 06:41:22;;;;;;;21.30;20.10;;;;;;;;;;5014759;28;20426;-83
2021/08/02 06:43:50;;;;;;;21.47;20.03;;;;;;;;;;5014704;28;20411;-84
2021/08/02 06:46:17;;;;;;;20.83;19.43;;;;;;;;;;5014555;28;20455;-85
2021/08/02 06:48:46;;;;;;;22.10;20.37;;;;;;;;;;5014378;28;20438;-84
2021/08/02 06:51:13;;;;;;;21.47;20.13;;;;;;;;;;5014205;28;20442;-84
2021/08/02 06:53:41;;;;;;;23.03;21.13;;;;;;;;;;5014776;28;20464;-84
2021/08/02 06:56:08;;;;;;;22.27;20.90;;;;;;;;;;5014063;28;20916;-84
2021/08/02 06:58:36;;;;;;;21.67;20.37;;;;;;;;;;5014312;28;20438;-85
2021/08/02 07:01:03;;;;;;;22.93;21.20;;;;;;;;;;5014648;28;20788;-84
2021/08/02 07:03:31;;;;;;;23.70;22.03;;;;;;;;;;5014319;28;20411;-84
2021/08/02 07:06:00;;;;;;;22.27;20.63;;;;;;;;;;5014416;28;20977;-84
2021/08/02 07:08:27;;;;;;;23.37;21.63;;;;;;;;;;5014264;28;20441;-85
2021/08/02 07:10:55;;;;;;;22.23;20.73;;;;;;;;;;5014164;28;20932;-84
2021/08/02 07:13:22;;;;;;;21.90;20.40;;;;;;;;;;5014266;28;20408;-85
2021/08/02 07:15:49;;;;;;;23.40;21.47;;;;;;;;;;5013967;28;20438;-85
2021/08/02 07:18:20;;;;;;;21.43;20.13;;;;;;;;;;5022665;28;20419;-85
2021/08/02 07:20:49;;;;;;;22.50;21.00;;;;;;;;;;5033830;28;20419;-84
2021/08/02 07:23:17;;;;;;;22.07;20.70;;;;;;;;;;5033327;28;20470;-83
2021/08/02 07:25:45;;;;;;;21.63;20.43;;;;;;;;;;5033597;28;20462;-85
2021/08/02 07:28:12;;;;;;;23.43;21.47;;;;;;;;;;5033703;28;20479;-85
2021/08/02 07:30:40;;;;;;;24.23;22.43;;;;;;;;;;5033592;28;20493;-84
2021/08/02 07:33:07;;;;;;;24.33;22.33;;;;;;;;;;5033887;28;20437;-85
2021/08/02 07:35:34;;;;;;;26.30;24.10;;;;;;;;;;5033843;28;20456;-85
2021/08/02 07:38:02;;;;;;;26.13;24.07;;;;;;;;;;5066102;28;20468;-93
2021/08/02 07:40:31;;;;;;;26.80;24.63;;;;;;;;;;5034230;28;20441;-88
2021/08/02 07:42:58;;;;;;;25.73;23.30;;;;;;;;;;5034092;28;20436;-93
2021/08/02 07:45:25;;;;;;;25.83;23.77;;;;;;;;;;5037713;28;20490;-87
2021/08/02 07:47:53;;;;;;;25.23;23.20;;;;;;;;;;5038209;28;20478;-87
2021/08/02 07:50:20;;;;;;;24.67;22.37;;;;;;;;;;5038030;28;20459;-87
2021/08/02 07:52:47;;;;;;;23.47;22.13;;;;;;;;;;5037792;28;20438;-87
2021/08/02 07:55:15;;;;;;;24.40;22.57;;;;;;;;;;5037508;28;20450;-87
2021/08/02 07:57:44;;;;;;;23.07;21.70;;;;;;;;;;5037363;28;20418;-87
2021/08/02 08:00:16;;;;;;;23.40;21.90;;;;;;;;;;5037847;28;20440;-89
2021/08/02 08:02:43;;;;;;;22.60;20.83;;;;;;;;;;5069885;28;20455;-87
2021/08/02 08:05:11;;;;;;;22.63;20.93;;;;;;;;;;5037259;28;20462;-87
2021/08/02 08:07:43;;;;;;;21.67;20.13;;;;;;;;;;5038069;28;20423;-87
2021/08/02 08:10:12;;;;;;;22.10;20.80;;;;;;;;;;5037309;28;20487;-86
2021/08/02 08:12:39;;;;;;;21.47;19.87;;;;;;;;;;5037371;28;20435;-87
2021/08/02 08:15:10;;;;;;;22.50;20.80;;;;;;;;;;5037546;28;20447;-85
2021/08/02 08:17:37;;;;;;;21.20;20.00;;;;;;;;;;5036891;28;20412;-84
2021/08/02 08:20:05;;;;;;;21.23;20.03;;;;;;;;;;5036768;28;20407;-84
2021/08/02 08:22:33;;;;;;;21.23;19.90;;;;;;;;;;5068977;28;20455;-85
2021/08/02 08:25:00;;;;;;;20.17;19.03;;;;;;;;;;5036987;28;20828;-84
2021/08/02 08:27:27;;;;;;;19.77;18.57;;;;;;;;;;5036662;28;20486;-84
2021/08/02 08:29:55;;;;;;;19.10;17.90;;;;;;;;;;5068306;28;20473;-84
2021/08/02 08:32:24;;;;;;;20.00;18.70;;;;;;;;;;5036631;28;20443;-85
2021/08/02 08:34:52;;;;;;;19.60;18.40;;;;;;;;;;5037302;28;20411;-90
2021/08/02 08:37:19;;;;;;;19.50;18.40;;;;;;;;;;5069132;28;20858;-84
2021/08/02 08:39:46;;;;;;;19.93;18.70;;;;;;;;;;5036716;28;20407;-85
2021/08/02 08:42:14;;;;;;;18.77;17.60;;;;;;;;;;5068866;28;20430;-85
2021/08/02 08:44:42;;;;;;;20.47;19.00;;;;;;;;;;5036308;28;20761;-84
2021/08/02 08:47:11;;;;;;;19.17;18.17;;;;;;;;;;5036623;28;20421;-85
2021/08/02 08:49:40;;;;;;;19.60;18.50;;;;;;;;;;5036402;28;20419;-85
2021/08/02 08:52:08;;;;;;;19.63;18.30;;;;;;;;;;5036391;28;20419;-84
2021/08/02 08:54:36;;;;;;;19.97;18.77;;;;;;;;;;5067564;28;20925;-84
2021/08/02 08:57:04;;;;;;;20.00;18.40;;;;;;;;;;5036290;28;20446;-85
2021/08/02 08:59:32;;;;;;;20.30;19.20;;;;;;;;;;5036335;28;20896;-86
2021/08/02 09:02:03;;;;;;;19.27;18.00;;;;;;;;;;5036432;28;20492;-86
2021/08/02 09:04:30;;;;;;;19.30;18.10;;;;;;;;;;5068235;28;20507;-86
2021/08/02 09:07:01;;;;;;;19.30;18.30;;;;;;;;;;5036180;28;20552;-87
2021/08/02 09:09:29;;;;;;;20.13;18.90;;;;;;;;;;5036194;28;20441;-86
2021/08/02 09:12:06;;;;;;;18.77;17.77;;;;;;;;;;5036097;28;20808;-86
2021/08/02 09:14:34;;;;;;;19.07;18.07;;;;;;;;;;5035991;28;20439;-86
2021/08/02 09:17:01;;;;;;;20.53;18.97;;;;;;;;;;5036173;28;20540;-86
2021/08/02 09:19:39;;;;;;;24.17;22.70;;;;;;;;;;5068180;28;20833;-86
2021/08/02 09:22:11;;;;;;;20.83;19.63;;;;;;;;;;5035876;28;20453;-86
2021/08/02 09:24:39;;;;;;;20.00;19.00;;;;;;;;;;5035814;28;20457;-86
2021/08/02 09:27:06;;;;;;;18.73;17.47;;;;;;;;;;5035580;28;20485;-87
2021/08/02 09:29:34;;;;;;;18.70;17.70;;;;;;;;;;5035585;28;20468;-86
2021/08/02 09:32:02;;;;;;;19.87;18.80;;;;;;;;;;5035696;28;20481;-85
2021/08/02 09:34:30;;;;;;;19.30;18.30;;;;;;;;;;5035875;28;20444;-86
2021/08/02 09:36:58;;;;;;;18.57;17.67;;;;;;;;;;5035640;28;20937;-86
2021/08/02 09:39:31;;;;;;;19.33;18.23;;;;;;;;;;5035696;28;20453;-86
2021/08/02 09:42:09;;;;;;;19.97;18.60;;;;;;;;;;5035963;28;20445;-86
2021/08/02 09:44:37;;;;;;;19.60;18.60;;;;;;;;;;5035419;28;20516;-85
2021/08/02 09:47:07;;;;;;;19.20;18.10;;;;;;;;;;5035015;28;20455;-85
2021/08/02 09:49:46;;;;;;;18.50;17.40;;;;;;;;;;5035293;28;20440;-85
2021/08/02 09:52:14;;;;;;;18.20;17.30;;;;;;;;;;5035307;28;20497;-86
2021/08/02 09:54:43;;;;;;;19.53;18.53;;;;;;;;;;5051383;28;20449;-86
2021/08/02 09:57:10;;;;;;;19.67;18.37;;;;;;;;;;5035212;28;20442;-86
2021/08/02 09:59:40;;;;;;;19.90;18.73;;;;;;;;;;5035000;28;20447;-86
2021/08/02 10:02:09;;;;;;;19.57;18.47;;;;;;;;;;5066838;28;20453;-86
2021/08/02 10:04:37;;;;;;;19.60;18.43;;;;;;;;;;5035067;28;20890;-86
2021/08/02 10:07:07;;;;;;;20.03;18.77;;;;;;;;;;5034023;28;20697;-86
2021/08/02 10:09:35;;;;;;;20.03;18.73;;;;;;;;;;5034735;28;20452;-86
2021/08/02 10:12:05;;;;;;;19.43;18.30;;;;;;;;;;5035757;28;20456;-87
2021/08/02 10:14:33;;;;;;;19.57;18.43;;;;;;;;;;5035751;28;20815;-87
2021/08/02 10:17:03;;;;;;;19.13;17.80;;;;;;;;;;5034942;28;20432;-86
2021/08/02 10:19:37;;;;;;;18.87;17.87;;;;;;;;;;5035402;28;20448;-87
2021/08/02 10:22:05;;;;;;;19.70;18.67;;;;;;;;;;5034813;28;20408;-86
2021/08/02 10:24:32;;;;;;;19.40;18.20;;;;;;;;;;5034892;28;20422;-87
2021/08/02 10:27:02;;;;;;;19.70;18.60;;;;;;;;;;5067146;28;20490;-87
2021/08/02 10:29:41;;;;;;;20.13;19.00;;;;;;;;;;5034611;28;20506;-87
2021/08/02 10:32:08;;;;;;;19.40;18.20;;;;;;;;;;5035146;28;20422;-87
2021/08/02 10:34:36;;;;;;;19.83;18.50;;;;;;;;;;5034775;28;20417;-87
2021/08/02 10:37:04;;;;;;;19.50;18.30;;;;;;;;;;5034631;28;20426;-87
2021/08/02 10:39:32;;;;;;;20.80;19.50;;;;;;;;;;5034245;28;20439;-86
2021/08/02 10:42:06;;;;;;;20.60;19.50;;;;;;;;;;5034944;28;20852;-86
2021/08/02 10:44:34;;;;;;;20.07;18.80;;;;;;;;;;5035009;28;20749;-86
2021/08/02 10:47:05;;;;;;;20.37;19.10;;;;;;;;;;5034434;28;20504;-87
2021/08/02 10:49:32;;;;;;;20.00;18.80;;;;;;;;;;5034395;28;20417;-86
2021/08/02 10:52:00;;;;;;;20.17;19.07;;;;;;;;;;5034269;28;20883;-86
2021/08/02 10:54:38;;;;;;;20.87;19.70;;;;;;;;;;5034887;28;20419;-86
2021/08/02 10:57:12;;;;;;;20.40;19.20;;;;;;;;;;5034539;28;20443;-87
2021/08/02 10:59:40;;;;;;;21.03;19.90;;;;;;;;;;5034526;28;20517;-86
2021/08/02 11:02:11;;;;;;;19.80;18.70;;;;;;;;;;5033980;28;20445;-87
2021/08/02 11:04:39;;;;;;;20.53;18.97;;;;;;;;;;5034442;28;20454;-86
2021/08/02 11:07:06;;;;;;;20.43;19.17;;;;;;;;;;5033898;28;20497;-87
2021/08/02 11:09:34;;;;;;;20.23;19.03;;;;;;;;;;5034385;28;20428;-86
2021/08/02 11:12:06;;;;;;;20.40;19.20;;;;;;;;;;5066606;28;20451;-86
2021/08/02 11:14:33;;;;;;;20.67;19.40;;;;;;;;;;5034494;28;20424;-87
2021/08/02 11:17:01;;;;;;;20.57;19.03;;;;;;;;;;5034159;28;20778;-86
2021/08/02 11:19:31;;;;;;;20.40;19.20;;;;;;;;;;5037688;28;20448;-86
2021/08/02 11:22:02;;;;;;;20.37;19.27;;;;;;;;;;5038296;28;20799;-87
2021/08/02 11:24:30;;;;;;;20.00;18.90;;;;;;;;;;5038192;28;20458;-87
2021/08/02 11:26:58;;;;;;;21.27;19.90;;;;;;;;;;5037945;28;20489;-86
2021/08/02 11:29:26;;;;;;;21.17;19.67;;;;;;;;;;5037944;28;20475;-86
2021/08/02 11:31:55;;;;;;;21.00;19.70;;;;;;;;;;5037921;28;20874;-86
2021/08/02 11:34:23;;;;;;;19.80;18.70;;;;;;;;;;5037981;28;20409;-86
2021/08/02 11:37:01;;;;;;;20.33;19.03;;;;;;;;;;5038338;28;20454;-86
2021/08/02 11:39:29;;;;;;;21.50;20.10;;;;;;;;;;5037987;28;20450;-86
2021/08/02 11:42:03;;;;;;;19.73;18.63;;;;;;;;;;5038258;28;20485;-86
2021/08/02 11:44:31;;;;;;;20.30;18.80;;;;;;;;;;5037773;28;20457;-86
2021/08/02 11:46:59;;;;;;;21.63;20.33;;;;;;;;;;5069927;28;20460;-85
2021/08/02 11:49:27;;;;;;;21.17;19.97;;;;;;;;;;5037544;28;20424;-86
2021/08/02 11:51:56;;;;;;;20.07;18.87;;;;;;;;;;5069659;28;20918;-86
2021/08/02 11:54:25;;;;;;;19.90;18.70;;;;;;;;;;5037574;28;20936;-86
2021/08/02 11:56:53;;;;;;;19.77;18.67;;;;;;;;;;5037444;28;20441;-86
2021/08/02 11:59:21;;;;;;;19.30;18.20;;;;;;;;;;5037553;28;20441;-87
2021/08/02 12:01:48;;;;;;;19.40;18.30;;;;;;;;;;5037554;28;20935;-86
2021/08/02 12:04:16;;;;;;;20.13;18.83;;;;;;;;;;5069816;28;20421;-86
2021/08/02 12:06:53;;;;;;;19.93;18.73;;;;;;;;;;5037241;28;21114;-86
2021/08/02 12:09:32;;;;;;;20.10;18.90;;;;;;;;;;5037377;28;20417;-86
2021/08/02 12:12:01;;;;;;;19.97;18.70;;;;;;;;;;5037587;28;20418;-86
2021/08/02 12:14:30;;;;;;;20.13;18.93;;;;;;;;;;5037175;28;20525;-86
2021/08/02 12:17:07;;;;;;;20.20;19.10;;;;;;;;;;5052061;28;20424;-86
2021/08/02 12:19:44;;;;;;;20.60;19.37;;;;;;;;;;5036867;28;20442;-86
2021/08/02 12:22:12;;;;;;;19.93;18.73;;;;;;;;;;5037010;28;20414;-86
2021/08/02 12:24:54;;;;;;;21.53;20.33;;;;;;;;;;5036855;28;20443;-86
2021/08/02 12:27:24;;;;;;;20.60;19.40;;;;;;;;;;5036374;28;20514;-87
2021/08/02 12:29:59;;;;;;;20.13;18.93;;;;;;;;;;5035929;28;20414;-86
2021/08/02 12:32:42;;;;;;;20.10;19.00;;;;;;;;;;5052736;28;20508;-86
2021/08/02 12:35:10;;;;;;;20.50;19.30;;;;;;;;;;5037128;28;20427;-87
2021/08/02 12:37:38;;;;;;;21.47;20.17;;;;;;;;;;5036504;28;20508;-86
2021/08/02 12:40:07;;;;;;;21.77;20.47;;;;;;;;;;5036774;28;20424;-85
2021/08/02 12:42:36;;;;;;;20.40;19.10;;;;;;;;;;5036660;28;20517;-85
2021/08/02 12:45:04;;;;;;;21.17;19.90;;;;;;;;;;5036649;28;20437;-86
2021/08/02 12:47:31;;;;;;;20.60;19.30;;;;;;;;;;5036715;28;20475;-85
2021/08/02 12:49:59;;;;;;;21.07;19.77;;;;;;;;;;5036553;28;20458;-85
2021/08/02 12:52:27;;;;;;;20.80;19.50;;;;;;;;;;5036585;28;20416;-84
2021/08/02 12:54:55;;;;;;;21.47;20.27;;;;;;;;;;5036585;28;20488;-85
2021/08/02 12:57:23;;;;;;;22.07;20.43;;;;;;;;;;5068258;28;20513;-85
2021/08/02 12:59:52;;;;;;;21.30;19.80;;;;;;;;;;5036052;28;20926;-86
2021/08/02 13:02:20;;;;;;;22.20;20.50;;;;;;;;;;5036072;28;20445;-85
2021/08/02 13:04:48;;;;;;;20.87;19.23;;;;;;;;;;5036263;28;20488;-85
2021/08/02 13:07:15;;;;;;;20.70;19.50;;;;;;;;;;5036142;28;20493;-85
2021/08/02 13:09:42;;;;;;;21.70;20.40;;;;;;;;;;5035940;28;20947;-85
2021/08/02 13:12:10;;;;;;;21.57;20.20;;;;;;;;;;5035805;28;20446;-85
2021/08/02 13:14:37;;;;;;;21.33;20.13;;;;;;;;;;5036213;28;20425;-85
2021/08/02 13:17:07;;;;;;;22.00;20.60;;;;;;;;;;5035699;28;20418;-85
2021/08/02 13:19:34;;;;;;;21.57;20.27;;;;;;;;;;5035847;28;20813;-85
2021/08/02 13:22:02;;;;;;;21.00;19.80;;;;;;;;;;5036107;28;20785;-85
2021/08/02 13:27:14;;;;;;;20.67;19.43;;;;;;;;;;5035667;28;20990;-85
2021/08/02 13:29:42;;;;;;;21.30;19.90;;;;;;;;;;5035016;28;20483;-85
2021/08/02 13:32:11;;;;;;;21.73;20.37;;;;;;;;;;5067984;28;20477;-86
2021/08/02 13:34:40;;;;;;;21.50;20.10;;;;;;;;;;5035584;28;20425;-85
2021/08/02 13:37:08;;;;;;;21.73;20.20;;;;;;;;;;5035321;28;20515;-85
2021/08/02 13:39:36;;;;;;;21.97;20.57;;;;;;;;;;5035573;28;20446;-85
2021/08/02 13:42:05;;;;;;;21.93;20.63;;;;;;;;;;5035443;28;20417;-85
2021/08/02 13:44:33;;;;;;;22.13;20.83;;;;;;;;;;5036102;28;20424;-85
2021/08/02 13:47:01;;;;;;;21.83;20.33;;;;;;;;;;5034953;28;20472;-85
2021/08/02 13:49:30;;;;;;;24.00;22.30;;;;;;;;;;5035371;28;20920;-86
2021/08/02 13:51:57;;;;;;;21.53;19.93;;;;;;;;;;5036392;28;20798;-85
2021/08/02 13:54:25;;;;;;;21.90;20.60;;;;;;;;;;5035480;28;20435;-87
2021/08/02 13:56:52;;;;;;;23.80;22.10;;;;;;;;;;5035362;28;20441;-87
2021/08/02 13:59:19;;;;;;;22.57;21.17;;;;;;;;;;5035300;28;20454;-85
2021/08/02 14:01:47;;;;;;;22.53;21.17;;;;;;;;;;5035286;28;20460;-86
2021/08/02 14:04:14;;;;;;;21.57;20.27;;;;;;;;;;5035333;28;20417;-87
2021/08/02 14:06:43;;;;;;;25.73;24.10;;;;;;;;;;5034860;28;20482;-86
2021/08/02 14:09:10;;;;;;;23.30;21.80;;;;;;;;;;5034957;28;20424;-87
2021/08/02 14:11:38;;;;;;;21.00;19.80;;;;;;;;;;5035028;28;20461;-87
2021/08/02 14:14:05;;;;;;;20.80;19.50;;;;;;;;;;5067192;28;20469;-86
2021/08/02 14:16:33;;;;;;;21.33;20.13;;;;;;;;;;5035389;28;20418;-87
2021/08/02 14:19:05;;;;;;;22.00;20.37;;;;;;;;;;5035085;28;20467;-86
2021/08/02 14:21:34;;;;;;;23.20;21.67;;;;;;;;;;5067137;28;20505;-86
2021/08/02 14:24:04;;;;;;;21.27;19.90;;;;;;;;;;5034737;28;20424;-87
2021/08/02 14:26:32;;;;;;;22.40;21.10;;;;;;;;;;5035006;28;20426;-86
2021/08/02 14:29:01;;;;;;;23.90;22.40;;;;;;;;;;5034494;28;20489;-87